createdAt,value
2019-03-05T00:01:25.852Z,39.07
2019-03-05T00:03:55.334Z,34.33
2019-03-05T00:06:25.043Z,36.13
2019-03-05T00:08:55.954Z,35.73
2019-03-05T00:11:25.395Z,37.63
2019-03-05T00:13:54.919Z,38.83
2019-03-05T00:16:24.301Z,58.03
2019-03-05T00:18:53.754Z,26.43
2019-03-05T00:21:23.203Z,40.60
2019-03-05T00:24:15.907Z,38.13
2019-03-05T00:26:45.745Z,44.03
2019-03-05T00:29:41.646Z,41.27
2019-03-05T00:32:11.214Z,40.40
2019-03-05T00:34:53.191Z,41.00
2019-03-05T00:38:02.614Z,38.50
2019-03-05T00:40:59.055Z,44.73
2019-03-05T00:44:06.089Z,49.80
2019-03-05T00:47:10.388Z,51.70
2019-03-05T00:50:00.789Z,62.00
2019-03-05T00:53:10.967Z,54.30
2019-03-05T00:56:05.102Z,43.77
2019-03-05T00:58:58.719Z,47.50
2019-03-05T01:02:05.267Z,61.90
2019-03-05T01:04:54.520Z,64.23
2019-03-05T01:07:25.259Z,57.97
2019-03-05T01:09:55.070Z,47.63
2019-03-05T01:12:25.231Z,51.00
2019-03-05T01:14:56.176Z,47.23
2019-03-05T01:17:25.931Z,47.50
2019-03-05T01:19:55.323Z,41.07
2019-03-05T01:22:24.790Z,43.67
2019-03-05T01:24:54.205Z,38.27
2019-03-05T01:27:23.554Z,32.00
2019-03-05T01:29:52.942Z,33.13
2019-03-05T01:32:47.552Z,34.53
2019-03-05T01:35:25.778Z,31.90
2019-03-05T01:37:55.604Z,29.23
2019-03-05T01:40:50.127Z,25.13
2019-03-05T01:43:19.505Z,25.57
2019-03-05T01:45:48.868Z,24.80
2019-03-05T01:48:18.299Z,26.50
2019-03-05T01:50:47.679Z,27.57
2019-03-05T01:53:17.059Z,25.43
2019-03-05T01:55:46.408Z,29.30
2019-03-05T01:58:15.772Z,29.83
2019-03-05T02:00:45.142Z,31.83
2019-03-05T02:03:14.557Z,31.17
2019-03-05T02:05:43.979Z,30.67
2019-03-05T02:08:13.536Z,27.60
2019-03-05T02:10:43.020Z,29.90
2019-03-05T02:13:12.511Z,30.57
2019-03-05T02:15:41.918Z,24.33
2019-03-05T02:18:17.794Z,28.73
2019-03-05T02:20:47.398Z,31.43
2019-03-05T02:23:24.417Z,31.17
2019-03-05T02:26:27.972Z,30.10
2019-03-05T02:29:29.310Z,26.83
2019-03-05T02:32:45.377Z,24.50
2019-03-05T02:35:38.209Z,26.07
2019-03-05T02:38:51.145Z,29.87
2019-03-05T02:41:48.558Z,30.90
2019-03-05T02:45:07.620Z,31.50
2019-03-05T02:48:12.964Z,30.00
2019-03-05T02:51:26.568Z,32.17
2019-03-05T02:54:41.227Z,33.13
2019-03-05T02:57:09.783Z,37.03
2019-03-05T02:59:39.444Z,41.10
2019-03-05T03:02:37.612Z,42.87
2019-03-05T03:05:41.637Z,46.57
2019-03-05T03:08:11.028Z,45.27
2019-03-05T03:10:40.380Z,46.83
2019-03-05T03:13:09.775Z,44.27
2019-03-05T03:15:39.319Z,37.00
2019-03-05T03:18:08.700Z,37.13
2019-03-05T03:20:38.117Z,34.50
2019-03-05T03:23:07.475Z,32.03
2019-03-05T03:25:36.838Z,20.07
2019-03-05T03:28:06.229Z,20.27
2019-03-05T03:30:35.576Z,20.40
2019-03-05T03:33:04.949Z,20.10
2019-03-05T03:35:34.306Z,22.47
2019-03-05T03:38:03.732Z,23.10
2019-03-05T03:40:33.103Z,21.67
2019-03-05T03:43:02.588Z,21.63
2019-03-05T03:45:31.921Z,23.17
2019-03-05T03:48:01.485Z,23.60
2019-03-05T03:50:30.862Z,23.60
2019-03-05T03:53:00.212Z,24.53
2019-03-05T03:55:29.722Z,24.67
2019-03-05T03:57:59.051Z,23.43
2019-03-05T04:00:28.642Z,24.43
2019-03-05T04:02:58.015Z,22.87
2019-03-05T04:05:27.381Z,22.53
2019-03-05T04:07:56.755Z,21.50
2019-03-05T04:10:26.130Z,20.97
2019-03-05T04:12:55.612Z,23.83
2019-03-05T04:15:25.010Z,23.43
2019-03-05T04:17:54.396Z,21.57
2019-03-05T04:20:35.325Z,23.00
2019-03-05T04:23:04.710Z,22.50
2019-03-05T04:25:34.931Z,21.33
2019-03-05T04:28:04.326Z,24.40
2019-03-05T04:30:33.735Z,23.57
2019-03-05T04:33:03.126Z,22.97
2019-03-05T04:35:32.522Z,23.47
2019-03-05T04:38:01.891Z,26.33
2019-03-05T04:40:31.267Z,25.63
2019-03-05T04:43:00.621Z,23.97
2019-03-05T04:46:05.647Z,22.73
2019-03-05T04:48:35.078Z,22.77
2019-03-05T04:51:32.423Z,23.13
2019-03-05T04:54:01.802Z,24.70
2019-03-05T04:56:31.182Z,26.23
2019-03-05T04:59:00.560Z,26.40
2019-03-05T05:01:29.963Z,25.67
2019-03-05T05:03:59.349Z,25.63
2019-03-05T05:06:28.768Z,24.63
2019-03-05T05:08:58.139Z,22.47
2019-03-05T05:11:27.565Z,22.60
2019-03-05T05:13:57.010Z,23.50
2019-03-05T05:16:26.371Z,22.77
2019-03-05T05:18:55.783Z,24.80
2019-03-05T05:21:25.233Z,23.07
2019-03-05T05:23:54.685Z,29.97
2019-03-05T05:26:24.945Z,25.53
2019-03-05T05:28:54.309Z,20.30
2019-03-05T05:31:23.695Z,26.67
2019-03-05T05:33:53.075Z,30.60
2019-03-05T05:36:22.436Z,35.73
2019-03-05T05:38:51.893Z,34.17
2019-03-05T05:41:21.251Z,38.33
2019-03-05T05:43:50.658Z,55.63
2019-03-05T05:46:20.032Z,58.50
2019-03-05T05:48:49.430Z,58.17
2019-03-05T05:51:18.855Z,47.63
2019-03-05T05:53:48.185Z,43.37
2019-03-05T05:56:17.541Z,41.93
2019-03-05T05:58:47.174Z,57.03
2019-03-05T06:01:16.535Z,39.87
2019-03-05T06:03:45.913Z,36.27
2019-03-05T06:06:15.309Z,40.57
2019-03-05T06:08:44.775Z,47.10
2019-03-05T06:11:14.111Z,51.13
2019-03-05T06:13:43.791Z,52.30
2019-03-05T06:16:14.207Z,56.93
2019-03-05T06:18:43.745Z,47.00
2019-03-05T06:21:13.209Z,43.03
2019-03-05T06:23:42.685Z,37.77
2019-03-05T06:26:12.109Z,34.80
2019-03-05T06:28:41.567Z,34.23
2019-03-05T06:31:11.068Z,37.40
2019-03-05T06:33:40.586Z,35.37
2019-03-05T06:36:10.127Z,36.03
2019-03-05T06:38:39.632Z,38.77
2019-03-05T06:41:09.190Z,37.73
2019-03-05T06:43:38.561Z,43.60
2019-03-05T06:46:07.938Z,42.17
2019-03-05T06:48:37.258Z,43.07
2019-03-05T06:51:06.904Z,43.00
2019-03-05T06:53:36.289Z,41.73
2019-03-05T06:56:05.801Z,41.63
2019-03-05T06:58:35.322Z,40.00
2019-03-05T07:01:04.761Z,39.40
2019-03-05T07:03:34.411Z,39.53
2019-03-05T07:06:39.689Z,36.40
2019-03-05T07:09:38.502Z,34.90
2019-03-05T07:12:27.424Z,36.33
2019-03-05T07:15:39.938Z,32.27
2019-03-05T07:18:13.452Z,29.23
2019-03-05T07:21:17.758Z,33.27
2019-03-05T07:24:14.776Z,30.03
2019-03-05T07:26:44.200Z,25.53
2019-03-05T07:29:13.547Z,26.63
2019-03-05T07:31:43.842Z,22.10
2019-03-05T07:34:19.385Z,20.00
2019-03-05T07:36:48.869Z,21.43
2019-03-05T07:39:22.428Z,20.33
2019-03-05T07:41:51.804Z,21.63
2019-03-05T07:44:21.258Z,20.70
2019-03-05T07:46:50.651Z,21.67
2019-03-05T07:49:20.808Z,21.10
2019-03-05T07:51:50.775Z,22.10
2019-03-05T07:54:20.290Z,21.87
2019-03-05T07:56:49.667Z,23.00
2019-03-05T07:59:19.039Z,23.20
2019-03-05T08:01:48.505Z,23.87
2019-03-05T08:04:17.929Z,28.87
2019-03-05T08:06:47.790Z,22.57
2019-03-05T08:09:38.567Z,22.70
2019-03-05T08:12:45.536Z,22.80
2019-03-05T08:16:08.827Z,21.03
2019-03-05T08:18:38.401Z,20.13
2019-03-05T08:21:08.161Z,21.13
2019-03-05T08:23:37.685Z,22.40
2019-03-05T08:26:07.559Z,20.57
2019-03-05T08:28:37.783Z,22.37
2019-03-05T08:31:07.576Z,22.27
2019-03-05T08:33:37.038Z,23.23
2019-03-05T08:36:07.438Z,23.33
2019-03-05T08:38:36.824Z,24.47
2019-03-05T08:41:06.212Z,22.67
2019-03-05T08:43:35.675Z,25.97
2019-03-05T08:46:05.197Z,23.97
2019-03-05T08:48:34.583Z,22.60
2019-03-05T08:51:03.929Z,23.40
2019-03-05T08:53:33.822Z,22.30
2019-03-05T08:56:03.228Z,20.17
2019-03-05T08:58:32.633Z,22.45
2019-03-05T09:01:02.010Z,21.52
2019-03-05T09:03:31.388Z,20.65
2019-03-05T09:06:00.770Z,21.90
2019-03-05T09:08:30.145Z,19.52
2019-03-05T09:10:59.626Z,18.65
2019-03-05T09:13:32.554Z,18.60
2019-03-05T09:16:00.174Z,18.60
2019-03-05T09:18:29.581Z,15.72
2019-03-05T09:20:59.003Z,15.75
2019-03-05T09:23:29.261Z,17.32
2019-03-05T09:25:58.708Z,16.23
2019-03-05T09:28:28.090Z,15.98
2019-03-05T09:30:57.893Z,16.85
2019-03-05T09:33:27.421Z,14.90
2019-03-05T09:36:00.080Z,15.50
2019-03-05T09:38:30.428Z,13.22
2019-03-05T09:40:59.964Z,14.43
2019-03-05T09:43:29.361Z,14.30
2019-03-05T09:45:58.872Z,14.40
2019-03-05T09:48:28.296Z,11.80
2019-03-05T09:50:57.767Z,8.95
2019-03-05T09:53:27.173Z,7.10
2019-03-05T09:55:56.791Z,6.75
2019-03-05T09:58:26.821Z,6.12
2019-03-05T10:00:56.347Z,6.35
2019-03-05T10:03:28.756Z,6.33
2019-03-05T10:05:58.569Z,6.15
2019-03-05T10:08:32.474Z,6.22
2019-03-05T10:11:09.324Z,6.28
2019-03-05T10:17:18.079Z,5.80
2019-03-05T10:19:46.816Z,6.15
2019-03-05T10:22:16.240Z,6.15
2019-03-05T10:24:45.617Z,5.87
2019-03-05T10:27:15.953Z,5.70
2019-03-05T10:29:45.353Z,6.83
2019-03-05T10:32:14.997Z,6.33
2019-03-05T10:34:44.426Z,6.75
2019-03-05T10:37:18.771Z,6.42
2019-03-05T10:39:45.632Z,6.17
2019-03-05T10:42:15.267Z,6.42
2019-03-05T10:44:44.641Z,6.78
2019-03-05T10:47:14.254Z,5.58
2019-03-05T10:49:44.660Z,5.85
2019-03-05T10:52:14.340Z,5.65
2019-03-05T10:54:44.584Z,5.67
2019-03-05T10:57:15.384Z,6.12
2019-03-05T10:59:45.732Z,5.25
2019-03-05T11:02:16.714Z,5.35
2019-03-05T11:04:46.205Z,5.63
2019-03-05T11:07:16.373Z,6.13
2019-03-05T11:09:45.811Z,6.60
2019-03-05T11:12:15.153Z,7.27
2019-03-05T11:14:44.660Z,7.73
2019-03-05T11:17:14.167Z,6.33
2019-03-05T11:19:43.555Z,7.90
2019-03-05T11:22:13.019Z,6.83
2019-03-05T11:24:42.600Z,6.93
2019-03-05T11:27:12.034Z,7.67
2019-03-05T11:29:41.426Z,9.90
2019-03-05T11:32:11.036Z,7.93
2019-03-05T11:34:40.425Z,6.00
2019-03-05T11:37:09.978Z,6.07
2019-03-05T11:39:40.878Z,6.60
2019-03-05T11:42:10.638Z,5.60
2019-03-05T11:44:43.090Z,5.50
2019-03-05T11:47:12.608Z,6.53
2019-03-05T11:49:42.889Z,6.37
2019-03-05T11:52:12.206Z,6.90
2019-03-05T11:54:41.610Z,6.90
2019-03-05T11:57:11.071Z,6.07
2019-03-05T11:59:42.202Z,5.60
2019-03-05T12:02:21.382Z,4.97
2019-03-05T12:04:42.801Z,5.63
2019-03-05T12:07:12.171Z,5.77
2019-03-05T12:09:41.747Z,5.83
2019-03-05T12:12:11.149Z,4.57
2019-03-05T12:14:40.547Z,5.80
2019-03-05T12:17:10.063Z,6.87
2019-03-05T12:19:39.437Z,7.77
2019-03-05T12:22:08.917Z,6.43
2019-03-05T12:24:38.309Z,6.57
2019-03-05T12:27:08.086Z,10.03
2019-03-05T12:29:37.468Z,5.77
2019-03-05T12:32:06.929Z,4.73
2019-03-05T12:34:37.461Z,5.07
2019-03-05T12:37:06.839Z,4.60
2019-03-05T12:39:36.247Z,5.17
2019-03-05T12:42:05.624Z,5.17
2019-03-05T12:44:34.995Z,5.20
2019-03-05T12:47:04.517Z,5.43
2019-03-05T12:49:33.868Z,5.23
2019-03-05T12:52:03.249Z,5.23
2019-03-05T12:54:32.651Z,4.90
2019-03-05T12:57:02.068Z,5.70
2019-03-05T12:59:31.491Z,7.57
2019-03-05T13:02:00.891Z,7.00
2019-03-05T13:04:30.224Z,6.57
2019-03-05T13:06:59.591Z,5.90
2019-03-05T13:09:29.032Z,5.20
2019-03-05T13:11:58.479Z,5.17
2019-03-05T13:14:27.859Z,5.20
2019-03-05T13:16:57.263Z,6.73
2019-03-05T13:19:26.683Z,6.50
2019-03-05T13:21:56.085Z,5.67
2019-03-05T13:24:25.494Z,5.13
2019-03-05T13:26:54.830Z,5.57
2019-03-05T13:29:24.197Z,4.73
2019-03-05T13:31:53.586Z,5.67
2019-03-05T13:34:22.944Z,4.87
2019-03-05T13:36:52.346Z,5.17
2019-03-05T13:39:23.694Z,6.37
2019-03-05T13:41:54.150Z,5.20
2019-03-05T13:44:37.139Z,5.07
2019-03-05T13:47:10.079Z,5.53
2019-03-05T13:50:13.589Z,5.63
2019-03-05T13:53:14.857Z,5.50
2019-03-05T13:56:30.299Z,4.53
2019-03-05T13:59:44.135Z,5.37
2019-03-05T14:02:15.365Z,4.47
2019-03-05T14:05:31.363Z,5.10
2019-03-05T14:08:43.359Z,5.33
2019-03-05T14:11:12.761Z,5.33
2019-03-05T14:13:42.501Z,6.43
2019-03-05T14:16:13.480Z,5.70
2019-03-05T14:18:42.924Z,6.83
2019-03-05T14:21:12.318Z,6.63
2019-03-05T14:23:41.932Z,6.70
2019-03-05T14:26:11.284Z,6.20
2019-03-05T14:28:40.651Z,6.13
2019-03-05T14:31:10.049Z,5.53
2019-03-05T14:33:39.415Z,5.90
2019-03-05T14:36:08.824Z,5.63
2019-03-05T14:38:38.218Z,6.63
2019-03-05T14:41:07.870Z,6.03
2019-03-05T14:43:37.307Z,7.33
2019-03-05T14:46:06.757Z,6.70
2019-03-05T14:48:36.288Z,5.73
2019-03-05T14:51:05.883Z,7.07
2019-03-05T14:53:35.283Z,8.50
2019-03-05T14:56:04.668Z,8.07
2019-03-05T14:58:34.080Z,7.87
2019-03-05T15:01:03.480Z,6.67
2019-03-05T15:03:33.174Z,6.93
2019-03-05T15:06:02.560Z,7.37
2019-03-05T15:08:31.986Z,8.30
2019-03-05T15:11:01.345Z,7.77
2019-03-05T15:13:30.857Z,7.17
2019-03-05T15:16:00.628Z,8.00
2019-03-05T15:18:30.254Z,8.03
2019-03-05T15:20:59.617Z,9.37
2019-03-05T15:23:29.391Z,9.00
2019-03-05T15:25:59.035Z,9.97
2019-03-05T15:28:28.438Z,9.37
2019-03-05T15:30:57.823Z,9.33
2019-03-05T15:33:27.165Z,11.10
2019-03-05T15:35:56.686Z,11.53
2019-03-05T15:38:26.042Z,10.40
2019-03-05T15:40:55.421Z,11.23
2019-03-05T15:43:24.874Z,11.80
2019-03-05T15:45:54.268Z,12.10
2019-03-05T15:48:23.901Z,13.07
2019-03-05T15:50:53.325Z,12.60
2019-03-05T15:53:22.766Z,12.77
2019-03-05T15:55:52.172Z,14.63
2019-03-05T15:58:21.601Z,17.70
2019-03-05T16:00:50.971Z,17.83
2019-03-05T16:03:20.456Z,14.50
2019-03-05T16:05:49.844Z,10.83
2019-03-05T16:08:20.954Z,9.47
2019-03-05T16:10:54.078Z,10.40
2019-03-05T16:13:21.532Z,10.73
2019-03-05T16:15:50.925Z,10.67
2019-03-05T16:18:20.348Z,9.60
2019-03-05T16:20:49.698Z,9.73
2019-03-05T16:23:19.047Z,9.53
2019-03-05T16:25:50.314Z,8.97
2019-03-05T16:28:20.274Z,9.90
2019-03-05T16:31:03.995Z,9.20
2019-03-05T16:33:55.036Z,10.13
2019-03-05T16:36:53.304Z,9.50
2019-03-05T16:39:37.551Z,9.80
2019-03-05T16:42:41.947Z,8.30
2019-03-05T16:45:24.179Z,7.40
2019-03-05T16:48:19.002Z,7.50
2019-03-05T16:51:06.192Z,7.00
2019-03-05T16:53:54.561Z,7.20
2019-03-05T16:56:54.947Z,7.40
2019-03-05T16:59:43.617Z,7.40
2019-03-05T17:02:41.184Z,7.97
2019-03-05T17:05:37.818Z,7.97
2019-03-05T17:08:29.106Z,6.87
2019-03-05T17:11:16.182Z,7.97
2019-03-05T17:13:45.547Z,7.93
2019-03-05T17:16:14.955Z,7.53
2019-03-05T17:18:44.359Z,6.83
2019-03-05T17:21:13.672Z,8.07
2019-03-05T17:23:43.392Z,7.23
2019-03-05T17:26:12.862Z,8.57
2019-03-05T17:28:42.308Z,7.83
2019-03-05T17:31:11.802Z,8.57
2019-03-05T17:33:41.182Z,8.43
2019-03-05T17:36:10.962Z,10.83
2019-03-05T17:38:41.237Z,8.53
2019-03-05T17:41:10.856Z,8.17
2019-03-05T17:43:42.730Z,7.80
2019-03-05T17:46:12.485Z,8.00
2019-03-05T17:48:41.893Z,8.17
2019-03-05T17:51:11.401Z,8.30
2019-03-05T17:53:40.843Z,8.83
2019-03-05T17:56:12.920Z,8.30
2019-03-05T17:58:42.310Z,9.00
2019-03-05T18:01:11.703Z,9.57
2019-03-05T18:03:41.213Z,8.80
2019-03-05T18:06:10.619Z,9.77
2019-03-05T18:08:40.932Z,9.47
2019-03-05T18:11:10.584Z,8.60
2019-03-05T18:13:39.965Z,9.70
2019-03-05T18:16:09.539Z,8.67
2019-03-05T18:18:41.113Z,9.50
2019-03-05T18:21:10.467Z,8.37
2019-03-05T18:23:40.018Z,8.07
2019-03-05T18:26:09.717Z,8.07
2019-03-05T18:28:39.102Z,8.80
2019-03-05T18:31:08.927Z,9.30
2019-03-05T18:33:38.307Z,9.00
2019-03-05T18:36:07.654Z,10.03
2019-03-05T18:38:37.236Z,8.60
2019-03-05T18:41:06.697Z,9.40
2019-03-05T18:43:36.100Z,9.43
2019-03-05T18:46:06.903Z,9.67
2019-03-05T18:48:36.301Z,9.77
2019-03-05T18:51:05.827Z,9.00
2019-03-05T18:53:35.516Z,9.63
2019-03-05T18:56:05.157Z,10.30
2019-03-05T18:58:34.825Z,9.90
2019-03-05T19:01:04.465Z,8.67
2019-03-05T19:03:33.845Z,8.53
2019-03-05T19:06:03.289Z,8.83
2019-03-05T19:08:32.896Z,10.17
2019-03-05T19:11:02.361Z,8.27
2019-03-05T19:13:31.951Z,7.47
2019-03-05T19:16:02.675Z,7.80
2019-03-05T19:18:32.033Z,7.33
2019-03-05T19:21:01.585Z,7.47
2019-03-05T19:23:30.940Z,7.83
2019-03-05T19:26:00.309Z,6.83
2019-03-05T19:28:29.662Z,7.20
2019-03-05T19:30:59.042Z,8.00
2019-03-05T19:33:28.483Z,7.03
2019-03-05T19:35:57.865Z,6.80
2019-03-05T19:38:27.250Z,7.00
2019-03-05T19:40:56.591Z,12.47
2019-03-05T19:43:26.279Z,11.40
2019-03-05T19:45:55.668Z,7.23
2019-03-05T19:48:25.459Z,7.70
2019-03-05T19:50:55.904Z,7.63
2019-03-05T19:53:25.284Z,7.77
2019-03-05T19:55:54.607Z,7.30
2019-03-05T19:58:24.334Z,8.00
2019-03-05T20:01:02.343Z,7.77
2019-03-05T20:03:31.759Z,7.47
2019-03-05T20:06:01.106Z,7.83
2019-03-05T20:08:39.450Z,7.77
2019-03-05T20:11:02.684Z,7.60
2019-03-05T20:13:34.599Z,7.50
2019-03-05T20:16:06.129Z,6.93
2019-03-05T20:18:35.564Z,7.40
2019-03-05T20:21:05.250Z,7.50
2019-03-05T20:23:35.042Z,7.43
2019-03-05T20:26:04.620Z,6.80
2019-03-05T20:28:35.782Z,7.10
2019-03-05T20:31:05.239Z,7.20
2019-03-05T20:33:34.831Z,6.87
2019-03-05T20:36:04.334Z,7.27
2019-03-05T20:38:33.834Z,7.30
2019-03-05T20:41:03.243Z,7.00
2019-03-05T20:43:32.703Z,6.70
2019-03-05T20:46:12.347Z,6.77
2019-03-05T20:48:41.738Z,6.33
2019-03-05T20:51:11.271Z,6.63
2019-03-05T20:53:40.715Z,6.47
2019-03-05T20:56:10.529Z,6.20
2019-03-05T20:58:39.964Z,6.03
2019-03-05T21:01:10.833Z,6.73
2019-03-05T21:03:40.332Z,6.37
2019-03-05T21:06:09.780Z,6.37
2019-03-05T21:08:43.043Z,8.77
2019-03-05T21:11:12.480Z,6.80
2019-03-05T21:13:41.910Z,7.17
2019-03-05T21:16:11.302Z,6.70
2019-03-05T21:18:40.532Z,6.43
2019-03-05T21:21:09.946Z,7.13
2019-03-05T21:23:39.332Z,6.60
2019-03-05T21:26:08.705Z,6.30
2019-03-05T21:28:38.044Z,5.80
2019-03-05T21:31:07.809Z,6.07
2019-03-05T21:33:37.339Z,6.53
2019-03-05T21:36:06.705Z,5.27
2019-03-05T21:38:38.318Z,6.03
2019-03-05T21:41:08.025Z,5.23
2019-03-05T21:43:49.256Z,5.73
2019-03-05T21:46:21.697Z,5.77
2019-03-05T21:48:51.149Z,5.70
2019-03-05T21:51:20.535Z,6.00
2019-03-05T21:53:50.085Z,4.80
2019-03-05T21:56:19.643Z,5.27
2019-03-05T21:58:48.997Z,5.90
2019-03-05T22:01:18.339Z,6.00
2019-03-05T22:03:47.975Z,6.20
2019-03-05T22:06:17.389Z,5.90
2019-03-05T22:08:46.790Z,6.77
2019-03-05T22:11:19.106Z,7.00
2019-03-05T22:13:48.485Z,6.60
2019-03-05T22:16:17.820Z,7.10
2019-03-05T22:18:47.360Z,6.73
2019-03-05T22:21:16.692Z,5.93
2019-03-05T22:23:46.030Z,6.27
2019-03-05T22:26:15.391Z,6.30
2019-03-05T22:28:44.710Z,6.53
2019-03-05T22:31:14.156Z,5.63
2019-03-05T22:33:44.932Z,5.73
2019-03-05T22:36:14.307Z,5.60
2019-03-05T22:38:45.596Z,5.23
2019-03-05T22:41:14.933Z,5.67
2019-03-05T22:43:44.314Z,5.37
2019-03-05T22:46:13.684Z,5.30
2019-03-05T22:48:43.046Z,5.63
2019-03-05T22:51:12.763Z,5.40
2019-03-05T22:53:42.139Z,5.40
2019-03-05T22:56:11.499Z,5.40
2019-03-05T22:58:40.857Z,4.97
2019-03-05T23:01:19.669Z,5.13
2019-03-05T23:04:01.343Z,5.00
2019-03-05T23:06:30.803Z,4.80
2019-03-05T23:09:00.190Z,4.77
2019-03-05T23:11:30.147Z,4.40
2019-03-05T23:13:59.515Z,4.80
2019-03-05T23:16:29.147Z,4.53
2019-03-05T23:18:58.531Z,3.40
2019-03-05T23:21:27.894Z,3.20
2019-03-05T23:23:57.262Z,2.90
2019-03-05T23:26:26.595Z,3.83
2019-03-05T23:28:55.933Z,3.33
2019-03-05T23:31:25.332Z,3.40
2019-03-05T23:33:54.901Z,3.13
2019-03-05T23:36:24.337Z,3.63
2019-03-05T23:38:53.815Z,3.50
2019-03-05T23:41:24.592Z,3.37
2019-03-05T23:44:04.962Z,3.23
2019-03-05T23:46:34.324Z,3.10
2019-03-05T23:49:03.687Z,3.53
2019-03-05T23:51:33.064Z,3.60
2019-03-05T23:54:02.639Z,3.17
2019-03-05T23:56:31.931Z,3.60
2019-03-05T23:59:01.364Z,3.70
